sensor_id;sensor_type;location;lat;lon;timestamp;temperature;humidity
2929;DHT22;1474;51.460;7.150;2022-07-10T00:00:29;15.20;99.90
2929;DHT22;1474;51.460;7.150;2022-07-10T00:02:55;15.20;99.90
2929;DHT22;1474;51.460;7.150;2022-07-10T00:05:22;15.20;99.90
2929;DHT22;1474;51.460;7.150;2022-07-10T00:07:48;15.20;99.90
2929;DHT22;1474;51.460;7.150;2022-07-10T00:10:15;15.10;99.90
2929;DHT22;1474;51.460;7.150;2022-07-10T00:12:41;15.10;99.90
2929;DHT22;1474;51.460;7.150;2022-07-10T00:15:08;15.00;99.90
2929;DHT22;1474;51.460;7.150;2022-07-10T00:17:34;15.10;99.90
2929;DHT22;1474;51.460;7.150;2022-07-10T00:20:02;15.10;99.90
2929;DHT22;1474;51.460;7.150;2022-07-10T00:22:28;15.10;99.90
2929;DHT22;1474;51.460;7.150;2022-07-10T00:24:54;15.00;99.90
2929;DHT22;1474;51.460;7.150;2022-07-10T00:27:20;15.00;99.90
2929;DHT22;1474;51.460;7.150;2022-07-10T00:29:45;15.00;99.90
2929;DHT22;1474;51.460;7.150;2022-07-10T00:32:11;15.00;99.90
2929;DHT22;1474;51.460;7.150;2022-07-10T00:34:37;15.00;99.90
2929;DHT22;1474;51.460;7.150;2022-07-10T00:37:04;15.00;99.90
2929;DHT22;1474;51.460;7.150;2022-07-10T00:39:30;15.10;99.90
2929;DHT22;1474;51.460;7.150;2022-07-10T00:42:08;15.10;99.90
2929;DHT22;1474;51.460;7.150;2022-07-10T00:44:35;15.10;99.90
2929;DHT22;1474;51.460;7.150;2022-07-10T00:47:04;15.10;99.90
2929;DHT22;1474;51.460;7.150;2022-07-10T00:49:34;15.10;99.90
2929;DHT22;1474;51.460;7.150;2022-07-10T00:52:02;15.10;99.90
2929;DHT22;1474;51.460;7.150;2022-07-10T00:54:29;15.10;99.90
2929;DHT22;1474;51.460;7.150;2022-07-10T00:56:56;15.10;99.90
2929;DHT22;1474;51.460;7.150;2022-07-10T00:59:24;15.10;99.90
2929;DHT22;1474;51.460;7.150;2022-07-10T01:01:51;15.10;99.90
2929;DHT22;1474;51.460;7.150;2022-07-10T01:04:17;15.00;99.90
2929;DHT22;1474;51.460;7.150;2022-07-10T01:06:43;15.00;99.90
2929;DHT22;1474;51.460;7.150;2022-07-10T01:09:09;14.90;99.90
2929;DHT22;1474;51.460;7.150;2022-07-10T01:11:37;14.80;99.90
2929;DHT22;1474;51.460;7.150;2022-07-10T01:14:03;14.80;99.90
2929;DHT22;1474;51.460;7.150;2022-07-10T01:16:30;14.80;99.90
2929;DHT22;1474;51.460;7.150;2022-07-10T01:18:57;14.70;99.90
2929;DHT22;1474;51.460;7.150;2022-07-10T01:21:26;14.70;99.90
2929;DHT22;1474;51.460;7.150;2022-07-10T01:23:52;14.60;99.90
2929;DHT22;1474;51.460;7.150;2022-07-10T01:26:19;14.70;99.90
2929;DHT22;1474;51.460;7.150;2022-07-10T01:28:49;14.70;99.90
2929;DHT22;1474;51.460;7.150;2022-07-10T01:31:16;14.80;99.90
2929;DHT22;1474;51.460;7.150;2022-07-10T01:33:42;14.90;99.90
2929;DHT22;1474;51.460;7.150;2022-07-10T01:36:10;14.90;99.90
2929;DHT22;1474;51.460;7.150;2022-07-10T01:38:36;14.90;99.90
2929;DHT22;1474;51.460;7.150;2022-07-10T01:41:01;15.00;99.90
2929;DHT22;1474;51.460;7.150;2022-07-10T01:43:27;14.90;99.90
2929;DHT22;1474;51.460;7.150;2022-07-10T01:45:52;14.90;99.90
2929;DHT22;1474;51.460;7.150;2022-07-10T01:48:18;14.90;99.90
2929;DHT22;1474;51.460;7.150;2022-07-10T01:50:44;14.90;99.90
2929;DHT22;1474;51.460;7.150;2022-07-10T01:53:09;14.90;99.90
2929;DHT22;1474;51.460;7.150;2022-07-10T01:55:36;14.90;99.90
2929;DHT22;1474;51.460;7.150;2022-07-10T01:58:02;14.90;99.90
2929;DHT22;1474;51.460;7.150;2022-07-10T02:00:28;14.80;99.90
2929;DHT22;1474;51.460;7.150;2022-07-10T02:02:53;14.80;99.90
2929;DHT22;1474;51.460;7.150;2022-07-10T02:05:51;14.80;99.90
2929;DHT22;1474;51.460;7.150;2022-07-10T02:08:17;14.80;99.90
2929;DHT22;1474;51.460;7.150;2022-07-10T02:10:43;14.80;99.90
2929;DHT22;1474;51.460;7.150;2022-07-10T02:13:10;14.80;99.90
2929;DHT22;1474;51.460;7.150;2022-07-10T02:15:37;14.80;99.90
2929;DHT22;1474;51.460;7.150;2022-07-10T02:18:02;14.70;99.90
2929;DHT22;1474;51.460;7.150;2022-07-10T02:20:28;14.70;99.90
2929;DHT22;1474;51.460;7.150;2022-07-10T02:22:54;14.70;99.90
2929;DHT22;1474;51.460;7.150;2022-07-10T02:25:19;14.70;99.90
2929;DHT22;1474;51.460;7.150;2022-07-10T02:27:45;14.70;99.90
2929;DHT22;1474;51.460;7.150;2022-07-10T02:30:11;14.70;99.90
2929;DHT22;1474;51.460;7.150;2022-07-10T02:32:36;14.60;99.90
2929;DHT22;1474;51.460;7.150;2022-07-10T02:35:02;14.60;99.90
2929;DHT22;1474;51.460;7.150;2022-07-10T02:37:28;14.70;99.90
2929;DHT22;1474;51.460;7.150;2022-07-10T02:39:54;14.70;99.90
2929;DHT22;1474;51.460;7.150;2022-07-10T02:42:21;14.70;99.90
2929;DHT22;1474;51.460;7.150;2022-07-10T02:44:46;14.70;99.90
2929;DHT22;1474;51.460;7.150;2022-07-10T02:47:12;14.70;99.90
2929;DHT22;1474;51.460;7.150;2022-07-10T02:49:38;14.50;99.90
2929;DHT22;1474;51.460;7.150;2022-07-10T02:52:04;14.50;99.90
2929;DHT22;1474;51.460;7.150;2022-07-10T02:54:30;14.50;99.90
2929;DHT22;1474;51.460;7.150;2022-07-10T02:56:56;14.50;99.90
2929;DHT22;1474;51.460;7.150;2022-07-10T02:59:21;14.50;99.90
2929;DHT22;1474;51.460;7.150;2022-07-10T03:01:47;14.50;99.90
2929;DHT22;1474;51.460;7.150;2022-07-10T03:04:13;14.60;99.90
2929;DHT22;1474;51.460;7.150;2022-07-10T03:06:39;14.60;99.90
2929;DHT22;1474;51.460;7.150;2022-07-10T03:09:04;14.60;99.90
2929;DHT22;1474;51.460;7.150;2022-07-10T03:11:30;14.50;99.90
2929;DHT22;1474;51.460;7.150;2022-07-10T03:13:55;14.50;99.90
2929;DHT22;1474;51.460;7.150;2022-07-10T03:16:21;14.40;99.90
2929;DHT22;1474;51.460;7.150;2022-07-10T03:18:47;14.40;99.90
2929;DHT22;1474;51.460;7.150;2022-07-10T03:21:12;14.50;99.90
2929;DHT22;1474;51.460;7.150;2022-07-10T03:23:38;14.50;99.90
2929;DHT22;1474;51.460;7.150;2022-07-10T03:26:05;14.50;99.90
2929;DHT22;1474;51.460;7.150;2022-07-10T03:28:31;14.50;99.90
2929;DHT22;1474;51.460;7.150;2022-07-10T03:30:56;14.50;99.90
2929;DHT22;1474;51.460;7.150;2022-07-10T03:33:22;14.40;99.90
2929;DHT22;1474;51.460;7.150;2022-07-10T03:35:48;14.40;99.90
2929;DHT22;1474;51.460;7.150;2022-07-10T03:38:14;14.40;99.90
2929;DHT22;1474;51.460;7.150;2022-07-10T03:40:40;14.40;99.90
2929;DHT22;1474;51.460;7.150;2022-07-10T03:43:06;14.40;99.90
2929;DHT22;1474;51.460;7.150;2022-07-10T03:45:31;14.40;99.90
2929;DHT22;1474;51.460;7.150;2022-07-10T03:47:57;14.40;99.90
2929;DHT22;1474;51.460;7.150;2022-07-10T03:50:23;14.40;99.90
2929;DHT22;1474;51.460;7.150;2022-07-10T03:52:49;14.30;99.90
2929;DHT22;1474;51.460;7.150;2022-07-10T03:55:14;14.30;99.90
2929;DHT22;1474;51.460;7.150;2022-07-10T03:57:40;14.20;99.90
2929;DHT22;1474;51.460;7.150;2022-07-10T04:00:29;14.10;99.90
2929;DHT22;1474;51.460;7.150;2022-07-10T04:03:03;14.10;99.90
2929;DHT22;1474;51.460;7.150;2022-07-10T04:05:30;14.10;99.90
2929;DHT22;1474;51.460;7.150;2022-07-10T04:07:57;14.10;99.90
2929;DHT22;1474;51.460;7.150;2022-07-10T04:10:23;14.10;99.90
2929;DHT22;1474;51.460;7.150;2022-07-10T04:12:50;14.20;99.90
2929;DHT22;1474;51.460;7.150;2022-07-10T04:15:16;14.20;99.90
2929;DHT22;1474;51.460;7.150;2022-07-10T04:17:42;14.20;99.90
2929;DHT22;1474;51.460;7.150;2022-07-10T04:20:08;14.30;99.90
2929;DHT22;1474;51.460;7.150;2022-07-10T04:22:34;14.30;99.90
2929;DHT22;1474;51.460;7.150;2022-07-10T04:25:00;14.30;99.90
2929;DHT22;1474;51.460;7.150;2022-07-10T04:27:25;14.30;99.90
2929;DHT22;1474;51.460;7.150;2022-07-10T04:29:51;14.30;99.90
2929;DHT22;1474;51.460;7.150;2022-07-10T04:32:17;14.40;99.90
2929;DHT22;1474;51.460;7.150;2022-07-10T04:34:43;14.40;99.90
2929;DHT22;1474;51.460;7.150;2022-07-10T04:37:09;14.40;99.90
2929;DHT22;1474;51.460;7.150;2022-07-10T04:39:38;14.40;99.90
2929;DHT22;1474;51.460;7.150;2022-07-10T04:42:08;14.40;99.90
2929;DHT22;1474;51.460;7.150;2022-07-10T04:44:34;14.40;99.90
2929;DHT22;1474;51.460;7.150;2022-07-10T04:47:01;14.50;99.90
2929;DHT22;1474;51.460;7.150;2022-07-10T04:49:27;14.40;99.90
2929;DHT22;1474;51.460;7.150;2022-07-10T04:51:54;14.50;99.90
2929;DHT22;1474;51.460;7.150;2022-07-10T04:54:21;14.40;99.90
2929;DHT22;1474;51.460;7.150;2022-07-10T04:56:47;14.50;99.90
2929;DHT22;1474;51.460;7.150;2022-07-10T04:59:13;14.50;99.90
2929;DHT22;1474;51.460;7.150;2022-07-10T05:01:38;14.60;99.90
2929;DHT22;1474;51.460;7.150;2022-07-10T05:04:04;14.50;99.90
2929;DHT22;1474;51.460;7.150;2022-07-10T05:06:30;14.50;99.90
2929;DHT22;1474;51.460;7.150;2022-07-10T05:08:56;14.60;99.90
2929;DHT22;1474;51.460;7.150;2022-07-10T05:11:22;14.60;99.90
2929;DHT22;1474;51.460;7.150;2022-07-10T05:13:48;14.60;99.90
2929;DHT22;1474;51.460;7.150;2022-07-10T05:16:15;14.60;99.90
2929;DHT22;1474;51.460;7.150;2022-07-10T05:18:41;14.60;99.90
2929;DHT22;1474;51.460;7.150;2022-07-10T05:21:07;14.70;99.90
2929;DHT22;1474;51.460;7.150;2022-07-10T05:23:34;14.70;99.90
2929;DHT22;1474;51.460;7.150;2022-07-10T05:25:59;14.70;99.90
2929;DHT22;1474;51.460;7.150;2022-07-10T05:28:25;14.70;99.90
2929;DHT22;1474;51.460;7.150;2022-07-10T05:30:51;14.80;99.90
2929;DHT22;1474;51.460;7.150;2022-07-10T05:33:17;14.70;99.90
2929;DHT22;1474;51.460;7.150;2022-07-10T05:35:42;14.70;99.90
2929;DHT22;1474;51.460;7.150;2022-07-10T05:38:08;14.70;99.90
2929;DHT22;1474;51.460;7.150;2022-07-10T05:40:34;14.70;99.90
2929;DHT22;1474;51.460;7.150;2022-07-10T05:43:00;14.80;99.90
2929;DHT22;1474;51.460;7.150;2022-07-10T05:45:25;14.90;99.90
2929;DHT22;1474;51.460;7.150;2022-07-10T05:47:51;15.00;99.90
2929;DHT22;1474;51.460;7.150;2022-07-10T05:50:17;15.10;99.90
2929;DHT22;1474;51.460;7.150;2022-07-10T05:52:42;15.10;99.90
2929;DHT22;1474;51.460;7.150;2022-07-10T05:55:08;15.10;99.90
2929;DHT22;1474;51.460;7.150;2022-07-10T05:57:35;15.20;99.90
2929;DHT22;1474;51.460;7.150;2022-07-10T06:00:02;15.20;99.90
2929;DHT22;1474;51.460;7.150;2022-07-10T06:02:29;15.40;99.90
2929;DHT22;1474;51.460;7.150;2022-07-10T06:04:54;15.50;99.90
2929;DHT22;1474;51.460;7.150;2022-07-10T06:07:20;15.50;99.90
2929;DHT22;1474;51.460;7.150;2022-07-10T06:09:46;15.60;99.90
2929;DHT22;1474;51.460;7.150;2022-07-10T06:12:12;15.60;99.90
2929;DHT22;1474;51.460;7.150;2022-07-10T06:14:37;15.80;99.90
2929;DHT22;1474;51.460;7.150;2022-07-10T06:17:03;15.90;99.90
2929;DHT22;1474;51.460;7.150;2022-07-10T06:19:29;16.00;99.90
2929;DHT22;1474;51.460;7.150;2022-07-10T06:21:55;16.00;99.90
2929;DHT22;1474;51.460;7.150;2022-07-10T06:24:39;16.10;99.90
2929;DHT22;1474;51.460;7.150;2022-07-10T06:27:05;16.20;99.90
2929;DHT22;1474;51.460;7.150;2022-07-10T06:29:31;16.30;99.90
2929;DHT22;1474;51.460;7.150;2022-07-10T06:31:57;16.40;99.90
2929;DHT22;1474;51.460;7.150;2022-07-10T06:34:23;16.30;99.90
2929;DHT22;1474;51.460;7.150;2022-07-10T06:36:49;16.20;99.90
2929;DHT22;1474;51.460;7.150;2022-07-10T06:39:14;16.10;99.90
2929;DHT22;1474;51.460;7.150;2022-07-10T06:41:40;16.10;99.90
2929;DHT22;1474;51.460;7.150;2022-07-10T06:44:06;16.00;99.90
2929;DHT22;1474;51.460;7.150;2022-07-10T06:46:32;15.90;99.90
2929;DHT22;1474;51.460;7.150;2022-07-10T06:48:58;16.00;99.90
2929;DHT22;1474;51.460;7.150;2022-07-10T06:51:24;15.90;99.90
2929;DHT22;1474;51.460;7.150;2022-07-10T06:53:50;15.90;99.90
2929;DHT22;1474;51.460;7.150;2022-07-10T06:56:16;15.90;99.90
2929;DHT22;1474;51.460;7.150;2022-07-10T06:58:42;15.80;99.90
2929;DHT22;1474;51.460;7.150;2022-07-10T07:01:08;15.80;99.90
2929;DHT22;1474;51.460;7.150;2022-07-10T07:03:34;15.80;99.90
2929;DHT22;1474;51.460;7.150;2022-07-10T07:06:00;15.90;99.90
2929;DHT22;1474;51.460;7.150;2022-07-10T07:08:29;15.80;99.90
2929;DHT22;1474;51.460;7.150;2022-07-10T07:10:55;15.80;99.90
2929;DHT22;1474;51.460;7.150;2022-07-10T07:13:20;15.90;99.90
2929;DHT22;1474;51.460;7.150;2022-07-10T07:15:46;15.80;99.90
2929;DHT22;1474;51.460;7.150;2022-07-10T07:18:19;15.80;99.90
2929;DHT22;1474;51.460;7.150;2022-07-10T07:20:46;15.90;99.90
2929;DHT22;1474;51.460;7.150;2022-07-10T07:23:41;15.70;99.90
2929;DHT22;1474;51.460;7.150;2022-07-10T07:26:07;15.70;99.90
2929;DHT22;1474;51.460;7.150;2022-07-10T07:28:33;15.80;99.90
2929;DHT22;1474;51.460;7.150;2022-07-10T07:30:59;15.80;99.90
2929;DHT22;1474;51.460;7.150;2022-07-10T07:33:25;16.00;99.90
2929;DHT22;1474;51.460;7.150;2022-07-10T07:35:50;15.90;99.90
2929;DHT22;1474;51.460;7.150;2022-07-10T07:38:16;16.00;99.90
2929;DHT22;1474;51.460;7.150;2022-07-10T07:40:42;16.00;99.90
2929;DHT22;1474;51.460;7.150;2022-07-10T07:43:09;15.90;99.90
2929;DHT22;1474;51.460;7.150;2022-07-10T07:45:36;15.80;99.90
2929;DHT22;1474;51.460;7.150;2022-07-10T07:48:02;15.80;99.90
2929;DHT22;1474;51.460;7.150;2022-07-10T07:50:35;15.90;99.90
2929;DHT22;1474;51.460;7.150;2022-07-10T07:53:03;15.80;99.90
2929;DHT22;1474;51.460;7.150;2022-07-10T07:55:29;15.70;99.90
2929;DHT22;1474;51.460;7.150;2022-07-10T07:57:56;15.70;99.90
2929;DHT22;1474;51.460;7.150;2022-07-10T08:00:24;15.70;99.90
2929;DHT22;1474;51.460;7.150;2022-07-10T08:02:51;15.70;99.90
2929;DHT22;1474;51.460;7.150;2022-07-10T08:05:17;15.70;99.90
2929;DHT22;1474;51.460;7.150;2022-07-10T08:07:49;15.70;99.90
2929;DHT22;1474;51.460;7.150;2022-07-10T08:10:17;15.70;99.90
2929;DHT22;1474;51.460;7.150;2022-07-10T08:12:43;15.80;99.90
2929;DHT22;1474;51.460;7.150;2022-07-10T08:15:12;15.70;99.90
2929;DHT22;1474;51.460;7.150;2022-07-10T08:17:39;15.70;99.90
2929;DHT22;1474;51.460;7.150;2022-07-10T08:20:07;15.70;99.90
2929;DHT22;1474;51.460;7.150;2022-07-10T08:22:33;15.80;99.90
2929;DHT22;1474;51.460;7.150;2022-07-10T08:24:59;15.50;99.90
2929;DHT22;1474;51.460;7.150;2022-07-10T08:27:25;15.30;99.90
2929;DHT22;1474;51.460;7.150;2022-07-10T08:29:51;15.30;99.90
2929;DHT22;1474;51.460;7.150;2022-07-10T08:32:17;15.30;99.90
2929;DHT22;1474;51.460;7.150;2022-07-10T08:34:43;15.40;99.90
2929;DHT22;1474;51.460;7.150;2022-07-10T08:37:09;15.40;99.90
2929;DHT22;1474;51.460;7.150;2022-07-10T08:39:35;15.30;99.90
2929;DHT22;1474;51.460;7.150;2022-07-10T08:42:01;15.20;99.90
2929;DHT22;1474;51.460;7.150;2022-07-10T08:44:28;15.10;99.90
2929;DHT22;1474;51.460;7.150;2022-07-10T08:46:55;15.20;99.90
2929;DHT22;1474;51.460;7.150;2022-07-10T08:49:27;15.20;99.90
2929;DHT22;1474;51.460;7.150;2022-07-10T08:54:31;15.40;99.90
2929;DHT22;1474;51.460;7.150;2022-07-10T08:56:58;15.30;99.90
2929;DHT22;1474;51.460;7.150;2022-07-10T08:59:24;15.40;99.90
2929;DHT22;1474;51.460;7.150;2022-07-10T09:01:50;15.40;99.90
2929;DHT22;1474;51.460;7.150;2022-07-10T09:04:24;15.50;99.90
2929;DHT22;1474;51.460;7.150;2022-07-10T09:06:51;15.50;99.90
2929;DHT22;1474;51.460;7.150;2022-07-10T09:09:17;15.40;99.90
2929;DHT22;1474;51.460;7.150;2022-07-10T09:11:43;15.30;99.90
2929;DHT22;1474;51.460;7.150;2022-07-10T09:14:11;15.50;99.90
2929;DHT22;1474;51.460;7.150;2022-07-10T09:16:45;15.60;99.90
2929;DHT22;1474;51.460;7.150;2022-07-10T09:19:23;15.50;99.90
2929;DHT22;1474;51.460;7.150;2022-07-10T09:21:50;15.50;99.90
2929;DHT22;1474;51.460;7.150;2022-07-10T09:24:17;15.60;99.90
2929;DHT22;1474;51.460;7.150;2022-07-10T09:29:22;15.80;99.90
2929;DHT22;1474;51.460;7.150;2022-07-10T09:32:01;15.90;99.90
2929;DHT22;1474;51.460;7.150;2022-07-10T09:37:16;16.10;99.90
2929;DHT22;1474;51.460;7.150;2022-07-10T09:40:01;16.20;99.90
2929;DHT22;1474;51.460;7.150;2022-07-10T09:42:36;16.20;99.90
2929;DHT22;1474;51.460;7.150;2022-07-10T09:47:43;16.30;99.90
2929;DHT22;1474;51.460;7.150;2022-07-10T09:50:26;16.60;99.90
2929;DHT22;1474;51.460;7.150;2022-07-10T09:52:57;16.60;99.90
2929;DHT22;1474;51.460;7.150;2022-07-10T09:55:26;16.60;99.90
2929;DHT22;1474;51.460;7.150;2022-07-10T09:58:06;16.70;99.90
2929;DHT22;1474;51.460;7.150;2022-07-10T10:00:37;16.50;99.90
2929;DHT22;1474;51.460;7.150;2022-07-10T10:03:08;16.60;99.90
2929;DHT22;1474;51.460;7.150;2022-07-10T10:05:43;16.70;99.90
2929;DHT22;1474;51.460;7.150;2022-07-10T10:08:25;16.70;99.90
2929;DHT22;1474;51.460;7.150;2022-07-10T10:10:53;16.70;99.90
2929;DHT22;1474;51.460;7.150;2022-07-10T10:13:26;16.70;99.90
2929;DHT22;1474;51.460;7.150;2022-07-10T10:15:56;16.70;99.90
2929;DHT22;1474;51.460;7.150;2022-07-10T10:18:23;16.70;99.90
2929;DHT22;1474;51.460;7.150;2022-07-10T10:20:52;16.60;99.90
2929;DHT22;1474;51.460;7.150;2022-07-10T10:23:25;16.60;99.90
2929;DHT22;1474;51.460;7.150;2022-07-10T10:25:53;16.70;99.90
2929;DHT22;1474;51.460;7.150;2022-07-10T10:28:23;16.70;99.90
2929;DHT22;1474;51.460;7.150;2022-07-10T10:30:56;16.60;99.90
2929;DHT22;1474;51.460;7.150;2022-07-10T10:35:58;16.60;99.90
2929;DHT22;1474;51.460;7.150;2022-07-10T10:38:24;16.50;99.90
2929;DHT22;1474;51.460;7.150;2022-07-10T10:40:50;16.50;99.90
2929;DHT22;1474;51.460;7.150;2022-07-10T10:43:20;16.50;99.90
2929;DHT22;1474;51.460;7.150;2022-07-10T10:45:47;16.50;99.90
2929;DHT22;1474;51.460;7.150;2022-07-10T10:48:15;16.40;99.90
2929;DHT22;1474;51.460;7.150;2022-07-10T10:50:53;16.30;99.90
2929;DHT22;1474;51.460;7.150;2022-07-10T10:53:26;16.40;99.90
2929;DHT22;1474;51.460;7.150;2022-07-10T10:58:45;16.50;99.90
2929;DHT22;1474;51.460;7.150;2022-07-10T11:06:44;16.80;99.90
2929;DHT22;1474;51.460;7.150;2022-07-10T11:14:28;16.70;99.90
2929;DHT22;1474;51.460;7.150;2022-07-10T11:16:57;16.70;99.90
2929;DHT22;1474;51.460;7.150;2022-07-10T11:19:28;16.80;99.90
2929;DHT22;1474;51.460;7.150;2022-07-10T11:24:55;17.10;99.90
2929;DHT22;1474;51.460;7.150;2022-07-10T11:30:08;17.30;99.90
2929;DHT22;1474;51.460;7.150;2022-07-10T11:32:35;17.40;99.90
2929;DHT22;1474;51.460;7.150;2022-07-10T11:35:01;17.30;99.90
2929;DHT22;1474;51.460;7.150;2022-07-10T11:37:27;17.50;99.90
2929;DHT22;1474;51.460;7.150;2022-07-10T11:40:09;17.50;99.90
2929;DHT22;1474;51.460;7.150;2022-07-10T11:42:54;17.60;99.90
2929;DHT22;1474;51.460;7.150;2022-07-10T11:45:31;17.60;99.90
2929;DHT22;1474;51.460;7.150;2022-07-10T11:47:58;17.60;99.90
2929;DHT22;1474;51.460;7.150;2022-07-10T11:50:25;17.60;99.90
2929;DHT22;1474;51.460;7.150;2022-07-10T11:52:51;17.70;99.90
2929;DHT22;1474;51.460;7.150;2022-07-10T11:55:19;17.60;99.90
2929;DHT22;1474;51.460;7.150;2022-07-10T11:57:45;17.60;99.90
2929;DHT22;1474;51.460;7.150;2022-07-10T12:00:43;17.60;99.90
2929;DHT22;1474;51.460;7.150;2022-07-10T12:03:20;17.50;99.90
2929;DHT22;1474;51.460;7.150;2022-07-10T12:05:47;17.30;99.90
2929;DHT22;1474;51.460;7.150;2022-07-10T12:08:14;17.40;99.90
2929;DHT22;1474;51.460;7.150;2022-07-10T12:10:40;17.50;99.90
2929;DHT22;1474;51.460;7.150;2022-07-10T12:13:11;17.80;99.90
2929;DHT22;1474;51.460;7.150;2022-07-10T12:15:46;17.80;99.90
2929;DHT22;1474;51.460;7.150;2022-07-10T12:18:21;17.90;99.90
2929;DHT22;1474;51.460;7.150;2022-07-10T12:20:49;18.00;99.90
2929;DHT22;1474;51.460;7.150;2022-07-10T12:23:19;17.80;99.90
2929;DHT22;1474;51.460;7.150;2022-07-10T12:25:47;17.70;99.90
2929;DHT22;1474;51.460;7.150;2022-07-10T12:28:15;17.60;99.90
2929;DHT22;1474;51.460;7.150;2022-07-10T12:30:43;17.70;99.90
2929;DHT22;1474;51.460;7.150;2022-07-10T12:33:10;17.90;99.90
2929;DHT22;1474;51.460;7.150;2022-07-10T12:35:57;18.00;99.90
2929;DHT22;1474;51.460;7.150;2022-07-10T12:38:25;18.30;99.90
2929;DHT22;1474;51.460;7.150;2022-07-10T12:41:09;18.30;99.90
2929;DHT22;1474;51.460;7.150;2022-07-10T12:43:35;18.30;99.90
2929;DHT22;1474;51.460;7.150;2022-07-10T12:46:28;18.20;99.90
2929;DHT22;1474;51.460;7.150;2022-07-10T12:49:06;18.10;99.90
2929;DHT22;1474;51.460;7.150;2022-07-10T12:51:36;18.00;99.90
2929;DHT22;1474;51.460;7.150;2022-07-10T12:54:07;18.20;99.90
2929;DHT22;1474;51.460;7.150;2022-07-10T12:56:35;18.40;99.90
2929;DHT22;1474;51.460;7.150;2022-07-10T12:59:03;18.40;99.90
2929;DHT22;1474;51.460;7.150;2022-07-10T13:01:48;18.60;99.90
2929;DHT22;1474;51.460;7.150;2022-07-10T13:04:14;18.60;99.90
2929;DHT22;1474;51.460;7.150;2022-07-10T13:06:40;18.50;99.90
2929;DHT22;1474;51.460;7.150;2022-07-10T13:09:22;18.40;99.90
2929;DHT22;1474;51.460;7.150;2022-07-10T13:11:50;18.50;99.90
2929;DHT22;1474;51.460;7.150;2022-07-10T13:14:16;18.50;99.90
2929;DHT22;1474;51.460;7.150;2022-07-10T13:16:41;18.70;99.90
2929;DHT22;1474;51.460;7.150;2022-07-10T13:19:07;18.90;99.90
2929;DHT22;1474;51.460;7.150;2022-07-10T13:21:33;18.90;99.90
2929;DHT22;1474;51.460;7.150;2022-07-10T13:23:59;19.00;99.90
2929;DHT22;1474;51.460;7.150;2022-07-10T13:26:25;18.90;99.90
2929;DHT22;1474;51.460;7.150;2022-07-10T13:28:50;18.90;99.90
2929;DHT22;1474;51.460;7.150;2022-07-10T13:31:16;18.90;99.90
2929;DHT22;1474;51.460;7.150;2022-07-10T13:33:42;19.00;99.90
2929;DHT22;1474;51.460;7.150;2022-07-10T13:36:08;18.90;99.90
2929;DHT22;1474;51.460;7.150;2022-07-10T13:38:34;18.80;99.90
2929;DHT22;1474;51.460;7.150;2022-07-10T13:41:01;18.70;99.90
2929;DHT22;1474;51.460;7.150;2022-07-10T13:43:27;18.50;99.90
2929;DHT22;1474;51.460;7.150;2022-07-10T13:45:59;18.40;99.90
2929;DHT22;1474;51.460;7.150;2022-07-10T13:48:25;18.20;99.90
2929;DHT22;1474;51.460;7.150;2022-07-10T13:50:52;18.20;99.90
2929;DHT22;1474;51.460;7.150;2022-07-10T13:53:18;18.20;99.90
2929;DHT22;1474;51.460;7.150;2022-07-10T13:55:44;18.30;99.90
2929;DHT22;1474;51.460;7.150;2022-07-10T13:58:10;18.50;99.90
2929;DHT22;1474;51.460;7.150;2022-07-10T14:00:37;18.70;99.90
2929;DHT22;1474;51.460;7.150;2022-07-10T14:03:04;18.90;99.90
2929;DHT22;1474;51.460;7.150;2022-07-10T14:05:30;19.10;99.90
2929;DHT22;1474;51.460;7.150;2022-07-10T14:07:56;19.30;99.90
2929;DHT22;1474;51.460;7.150;2022-07-10T14:10:21;19.40;99.90
2929;DHT22;1474;51.460;7.150;2022-07-10T14:12:47;19.50;99.90
2929;DHT22;1474;51.460;7.150;2022-07-10T14:15:13;19.60;99.90
2929;DHT22;1474;51.460;7.150;2022-07-10T14:17:39;19.50;99.90
2929;DHT22;1474;51.460;7.150;2022-07-10T14:20:05;19.40;99.90
2929;DHT22;1474;51.460;7.150;2022-07-10T14:22:31;19.20;99.90
2929;DHT22;1474;51.460;7.150;2022-07-10T14:24:57;19.20;99.90
2929;DHT22;1474;51.460;7.150;2022-07-10T14:27:24;19.10;99.90
2929;DHT22;1474;51.460;7.150;2022-07-10T14:29:50;19.20;99.90
2929;DHT22;1474;51.460;7.150;2022-07-10T14:32:16;19.00;99.90
2929;DHT22;1474;51.460;7.150;2022-07-10T14:34:42;19.00;99.90
2929;DHT22;1474;51.460;7.150;2022-07-10T14:37:08;19.00;99.90
2929;DHT22;1474;51.460;7.150;2022-07-10T14:39:33;18.90;99.90
2929;DHT22;1474;51.460;7.150;2022-07-10T14:41:59;18.70;99.90
2929;DHT22;1474;51.460;7.150;2022-07-10T14:44:25;18.60;99.90
2929;DHT22;1474;51.460;7.150;2022-07-10T14:46:50;18.40;99.90
2929;DHT22;1474;51.460;7.150;2022-07-10T14:49:16;18.20;99.90
2929;DHT22;1474;51.460;7.150;2022-07-10T14:51:44;18.10;99.90
2929;DHT22;1474;51.460;7.150;2022-07-10T14:54:10;17.90;99.90
2929;DHT22;1474;51.460;7.150;2022-07-10T14:56:40;17.80;99.90
2929;DHT22;1474;51.460;7.150;2022-07-10T14:59:09;17.80;99.90
2929;DHT22;1474;51.460;7.150;2022-07-10T15:01:35;17.80;99.90
2929;DHT22;1474;51.460;7.150;2022-07-10T15:04:00;17.90;99.90
2929;DHT22;1474;51.460;7.150;2022-07-10T15:06:27;18.00;99.90
2929;DHT22;1474;51.460;7.150;2022-07-10T15:08:52;18.10;99.90
2929;DHT22;1474;51.460;7.150;2022-07-10T15:11:19;18.30;99.90
2929;DHT22;1474;51.460;7.150;2022-07-10T15:13:50;18.50;99.90
2929;DHT22;1474;51.460;7.150;2022-07-10T15:16:18;18.60;99.90
2929;DHT22;1474;51.460;7.150;2022-07-10T15:18:43;18.60;99.90
2929;DHT22;1474;51.460;7.150;2022-07-10T15:21:09;18.70;99.90
2929;DHT22;1474;51.460;7.150;2022-07-10T15:23:37;18.70;99.90
2929;DHT22;1474;51.460;7.150;2022-07-10T15:26:03;18.70;99.90
2929;DHT22;1474;51.460;7.150;2022-07-10T15:28:30;18.60;99.90
2929;DHT22;1474;51.460;7.150;2022-07-10T15:30:56;18.50;99.90
2929;DHT22;1474;51.460;7.150;2022-07-10T15:33:21;18.60;99.90
2929;DHT22;1474;51.460;7.150;2022-07-10T15:35:47;18.40;99.90
2929;DHT22;1474;51.460;7.150;2022-07-10T15:38:13;18.30;99.90
2929;DHT22;1474;51.460;7.150;2022-07-10T15:40:39;18.40;99.90
2929;DHT22;1474;51.460;7.150;2022-07-10T15:43:05;18.50;99.90
2929;DHT22;1474;51.460;7.150;2022-07-10T15:45:30;18.60;99.90
2929;DHT22;1474;51.460;7.150;2022-07-10T15:47:56;18.60;99.90
2929;DHT22;1474;51.460;7.150;2022-07-10T15:50:22;18.60;99.90
2929;DHT22;1474;51.460;7.150;2022-07-10T15:52:48;18.60;99.90
2929;DHT22;1474;51.460;7.150;2022-07-10T15:55:14;18.50;99.90
2929;DHT22;1474;51.460;7.150;2022-07-10T15:57:40;18.50;99.90
2929;DHT22;1474;51.460;7.150;2022-07-10T16:00:07;18.60;99.90
2929;DHT22;1474;51.460;7.150;2022-07-10T16:02:33;18.60;99.90
2929;DHT22;1474;51.460;7.150;2022-07-10T16:04:59;18.60;99.90
2929;DHT22;1474;51.460;7.150;2022-07-10T16:07:25;18.60;99.90
2929;DHT22;1474;51.460;7.150;2022-07-10T16:09:50;18.60;99.90
2929;DHT22;1474;51.460;7.150;2022-07-10T16:12:16;18.60;99.90
2929;DHT22;1474;51.460;7.150;2022-07-10T16:14:43;18.70;99.90
2929;DHT22;1474;51.460;7.150;2022-07-10T16:17:09;18.70;99.90
2929;DHT22;1474;51.460;7.150;2022-07-10T16:19:34;18.90;99.90
2929;DHT22;1474;51.460;7.150;2022-07-10T16:22:01;19.00;99.90
2929;DHT22;1474;51.460;7.150;2022-07-10T16:24:26;19.00;99.90
2929;DHT22;1474;51.460;7.150;2022-07-10T16:26:53;19.10;99.90
2929;DHT22;1474;51.460;7.150;2022-07-10T16:29:19;19.10;99.90
2929;DHT22;1474;51.460;7.150;2022-07-10T16:31:45;19.10;99.90
2929;DHT22;1474;51.460;7.150;2022-07-10T16:34:11;19.00;99.90
2929;DHT22;1474;51.460;7.150;2022-07-10T16:36:37;19.00;99.90